createdAt,value
2018-06-13T00:00:41.432Z,3.90
2018-06-13T00:01:41.444Z,2.50
2018-06-13T00:02:41.456Z,1.60
2018-06-13T00:03:41.471Z,1.50
2018-06-13T00:04:41.482Z,1.30
2018-06-13T00:05:41.493Z,1.90
2018-06-13T00:06:41.505Z,2.30
2018-06-13T00:07:41.517Z,2.80
2018-06-13T00:08:41.528Z,4.50
2018-06-13T00:09:41.541Z,3.20
2018-06-13T00:10:41.553Z,15.20
2018-06-13T00:11:41.568Z,18.10
2018-06-13T00:12:41.576Z,81.10
2018-06-13T00:13:41.590Z,44.30
2018-06-13T00:14:41.603Z,18.40
2018-06-13T00:15:41.613Z,24.20
2018-06-13T00:16:41.625Z,10.30
2018-06-13T00:17:41.636Z,61.10
2018-06-13T00:18:41.766Z,204.30
2018-06-13T00:19:41.662Z,206.80
2018-06-13T00:20:41.693Z,58.10
2018-06-13T00:21:41.685Z,112.40
2018-06-13T00:22:41.702Z,124.60
2018-06-13T00:23:41.710Z,98.40
2018-06-13T00:24:41.721Z,44.30
2018-06-13T00:25:41.734Z,38.60
2018-06-13T00:26:41.745Z,30.30
2018-06-13T00:27:41.759Z,56.20
2018-06-13T00:28:41.770Z,59.30
2018-06-13T00:29:41.782Z,28.20
2018-06-13T00:30:41.797Z,29.30
2018-06-13T00:31:41.806Z,40.60
2018-06-13T00:32:41.817Z,10.80
2018-06-13T00:33:41.829Z,5.20
2018-06-13T00:34:41.846Z,1.50
2018-06-13T00:35:41.854Z,74.20
2018-06-13T00:36:41.909Z,173.80
2018-06-13T00:37:41.878Z,279.50
2018-06-13T00:38:41.892Z,388.80
2018-06-13T00:39:41.905Z,205.10
2018-06-13T00:40:41.917Z,262.10
2018-06-13T00:41:41.926Z,176.00
2018-06-13T00:42:41.940Z,156.50
2018-06-13T00:43:41.952Z,189.90
2018-06-13T00:44:41.963Z,123.10
2018-06-13T00:45:41.976Z,115.70
2018-06-13T00:46:41.991Z,100.90
2018-06-13T00:47:41.999Z,145.40
2018-06-13T00:48:42.010Z,100.50
2018-06-13T00:49:42.021Z,95.90
2018-06-13T00:50:42.034Z,113.40
2018-06-13T00:51:42.045Z,102.50
2018-06-13T00:52:42.058Z,107.20
2018-06-13T00:53:42.069Z,6.60
2018-06-13T00:54:42.087Z,15.20
2018-06-13T00:55:42.094Z,27.20
2018-06-13T00:56:42.106Z,195.30
2018-06-13T00:57:42.117Z,157.80
2018-06-13T00:58:42.129Z,107.40
2018-06-13T00:59:42.140Z,50.90
2018-06-13T01:00:42.151Z,38.80
2018-06-13T01:01:42.165Z,55.90
2018-06-13T01:02:42.180Z,130.40
2018-06-13T01:03:42.189Z,133.80
2018-06-13T01:04:42.201Z,80.30
2018-06-13T01:05:42.218Z,92.60
2018-06-13T01:06:42.222Z,134.60
2018-06-13T01:07:42.236Z,103.70
2018-06-13T01:08:42.247Z,140.20
2018-06-13T01:09:42.258Z,88.00
2018-06-13T01:10:42.272Z,134.30
2018-06-13T01:11:42.282Z,123.00
2018-06-13T01:12:42.295Z,133.60
2018-06-13T01:13:42.305Z,143.50
2018-06-13T01:14:42.318Z,167.10
2018-06-13T01:15:42.329Z,126.60
2018-06-13T01:16:42.343Z,154.80
2018-06-13T01:17:42.351Z,111.60
2018-06-13T01:18:42.364Z,79.30
2018-06-13T01:19:42.376Z,47.90
2018-06-13T01:20:42.386Z,93.40
2018-06-13T01:21:42.397Z,156.40
2018-06-13T01:22:42.412Z,171.50
2018-06-13T01:23:42.425Z,144.20
2018-06-13T01:24:42.435Z,154.80
2018-06-13T01:25:42.447Z,172.50
2018-06-13T01:26:42.456Z,161.30
2018-06-13T01:27:42.469Z,199.30
2018-06-13T01:28:42.480Z,84.10
2018-06-13T01:29:42.491Z,92.70
2018-06-13T01:30:42.506Z,166.30
2018-06-13T01:31:42.516Z,186.30
2018-06-13T01:32:42.529Z,91.60
2018-06-13T01:33:42.539Z,137.00
2018-06-13T01:34:42.552Z,66.00
2018-06-13T01:35:42.564Z,146.80
2018-06-13T01:36:42.578Z,48.60
2018-06-13T01:37:42.585Z,33.50
2018-06-13T01:38:42.598Z,97.90
2018-06-13T01:39:42.611Z,129.70
2018-06-13T01:40:42.619Z,81.60
2018-06-13T01:41:42.631Z,96.80
2018-06-13T01:42:42.643Z,47.90
2018-06-13T01:43:42.664Z,15.50
2018-06-13T01:44:42.666Z,6.60
2018-06-13T01:45:42.679Z,18.40
2018-06-13T01:46:42.692Z,25.30
2018-06-13T01:47:42.703Z,38.60
2018-06-13T01:48:42.714Z,32.50
2018-06-13T01:49:42.726Z,21.00
2018-06-13T01:50:42.737Z,35.90
2018-06-13T01:51:42.750Z,58.10
2018-06-13T01:52:42.765Z,60.00
2018-06-13T01:53:42.771Z,46.80
2018-06-13T01:54:42.785Z,42.40
2018-06-13T01:55:42.795Z,62.20
2018-06-13T01:56:42.807Z,34.10
2018-06-13T01:57:42.817Z,43.80
2018-06-13T01:58:42.833Z,55.90
2018-06-13T01:59:42.842Z,31.70
2018-06-13T02:00:42.852Z,40.60
2018-06-13T02:01:42.866Z,35.10
2018-06-13T02:02:42.877Z,18.20
2018-06-13T02:03:42.891Z,8.70
2018-06-13T02:04:42.902Z,10.30
2018-06-13T02:05:42.914Z,19.20
2018-06-13T02:06:42.924Z,5.30
2018-06-13T02:07:42.937Z,1.30
2018-06-13T02:08:42.946Z,1.10
2018-06-13T02:09:42.959Z,1.20
2018-06-13T02:10:42.968Z,1.20
2018-06-13T02:11:42.980Z,1.10
2018-06-13T02:12:42.991Z,1.10
2018-06-13T02:13:43.005Z,1.20
2018-06-13T02:14:43.016Z,2.00
2018-06-13T02:15:43.030Z,1.50
2018-06-13T02:16:43.037Z,1.40
2018-06-13T02:17:43.049Z,1.10
2018-06-13T02:18:43.062Z,1.20
2018-06-13T02:19:43.074Z,1.20
2018-06-13T02:20:43.086Z,1.00
2018-06-13T02:21:43.098Z,1.00
2018-06-13T02:22:43.108Z,1.20
2018-06-13T02:23:43.122Z,1.10
2018-06-13T02:24:43.130Z,1.10
2018-06-13T02:25:43.141Z,1.10
2018-06-13T02:26:43.155Z,1.10
2018-06-13T02:27:43.167Z,1.10
2018-06-13T02:28:43.176Z,1.10
2018-06-13T02:29:43.186Z,1.10
2018-06-13T02:30:43.200Z,1.20
2018-06-13T02:31:43.210Z,1.20
2018-06-13T02:32:43.222Z,1.00
2018-06-13T02:33:43.233Z,1.00
2018-06-13T02:34:43.243Z,1.20
2018-06-13T02:35:43.257Z,1.00
2018-06-13T02:36:43.265Z,1.10
2018-06-13T02:37:43.280Z,1.10
2018-06-13T02:38:43.291Z,1.60
2018-06-13T02:39:43.302Z,1.10
2018-06-13T02:40:43.313Z,1.10
2018-06-13T02:41:43.324Z,1.10
2018-06-13T02:42:43.337Z,1.10
2018-06-13T02:43:43.347Z,1.10
2018-06-13T02:44:43.358Z,1.10
2018-06-13T02:45:43.368Z,1.10
2018-06-13T02:46:43.379Z,1.60
2018-06-13T02:47:43.391Z,1.10
2018-06-13T02:48:43.403Z,1.10
2018-06-13T02:49:43.414Z,1.00
2018-06-13T02:50:43.427Z,1.10
2018-06-13T02:51:43.437Z,1.10
2018-06-13T02:52:43.448Z,1.20
2018-06-13T02:53:43.463Z,1.10
2018-06-13T02:54:43.470Z,1.10
2018-06-13T02:55:43.486Z,1.10
2018-06-13T02:56:43.497Z,1.10
2018-06-13T02:57:43.506Z,1.10
2018-06-13T02:58:43.517Z,1.30
2018-06-13T02:59:43.529Z,1.10
2018-06-13T03:00:43.537Z,1.10
2018-06-13T03:01:43.552Z,1.50
2018-06-13T03:02:43.560Z,1.10
2018-06-13T03:03:43.569Z,2.00
2018-06-13T03:04:43.579Z,1.10
2018-06-13T03:05:43.592Z,1.00
2018-06-13T03:06:43.602Z,1.80
2018-06-13T03:07:43.613Z,1.20
2018-06-13T03:08:43.626Z,1.20
2018-06-13T03:09:43.637Z,1.30
2018-06-13T03:10:43.646Z,1.10
2018-06-13T03:11:43.659Z,1.30
2018-06-13T03:12:43.667Z,1.20
2018-06-13T03:13:43.684Z,1.10
2018-06-13T03:14:43.698Z,1.20
2018-06-13T03:15:43.702Z,1.30
2018-06-13T03:16:43.728Z,1.40
2018-06-13T03:17:43.723Z,1.10
2018-06-13T03:18:43.737Z,1.10
2018-06-13T03:19:43.745Z,1.00
2018-06-13T03:20:43.758Z,1.10
2018-06-13T03:21:43.767Z,1.30
2018-06-13T03:22:43.780Z,1.10
2018-06-13T03:23:43.790Z,1.10
2018-06-13T03:24:43.800Z,1.20
2018-06-13T03:25:43.815Z,1.50
2018-06-13T03:26:43.822Z,2.80
2018-06-13T03:27:43.836Z,1.10
2018-06-13T03:28:43.846Z,1.10
2018-06-13T03:29:43.856Z,23.40
2018-06-13T03:30:43.873Z,73.50
2018-06-13T03:31:43.881Z,1.40
2018-06-13T03:32:43.892Z,1.70
2018-06-13T03:33:43.906Z,1.20
2018-06-13T03:34:43.914Z,1.30
2018-06-13T03:35:43.928Z,1.10
2018-06-13T03:36:43.938Z,1.20
2018-06-13T03:37:43.951Z,1.20
2018-06-13T03:38:43.960Z,2.40
2018-06-13T03:39:43.973Z,1.40
2018-06-13T03:40:43.984Z,1.80
2018-06-13T03:41:43.996Z,2.70
2018-06-13T03:42:44.006Z,3.40
2018-06-13T03:43:44.020Z,2.70
2018-06-13T03:44:44.032Z,2.50
2018-06-13T03:45:44.043Z,1.70
2018-06-13T03:46:44.054Z,1.30
2018-06-13T03:47:44.065Z,1.20
2018-06-13T03:48:44.074Z,1.20
2018-06-13T03:49:44.092Z,1.20
2018-06-13T03:50:44.099Z,1.50
2018-06-13T03:51:44.111Z,25.40
2018-06-13T03:52:44.122Z,151.90
2018-06-13T03:53:44.134Z,42.10
2018-06-13T03:54:44.144Z,18.30
2018-06-13T03:55:44.156Z,2.50
2018-06-13T03:56:44.170Z,1.30
2018-06-13T03:57:44.181Z,2.00
2018-06-13T03:58:44.194Z,1.40
2018-06-13T03:59:44.204Z,1.30
2018-06-13T04:00:44.217Z,1.10
2018-06-13T04:01:44.243Z,1.10
2018-06-13T04:02:44.240Z,1.10
2018-06-13T04:03:44.251Z,1.20
2018-06-13T04:04:44.259Z,1.10
2018-06-13T04:05:44.274Z,2.00
2018-06-13T04:06:44.285Z,1.00
2018-06-13T04:07:44.296Z,1.10
2018-06-13T04:08:44.310Z,1.20
2018-06-13T04:09:44.321Z,1.10
2018-06-13T04:10:44.332Z,1.30
2018-06-13T04:11:44.342Z,2.00
2018-06-13T04:12:44.354Z,1.50
2018-06-13T04:13:44.371Z,1.10
2018-06-13T04:14:44.380Z,1.00
2018-06-13T04:15:44.391Z,1.10
2018-06-13T04:16:44.401Z,1.10
2018-06-13T04:17:44.415Z,1.10
2018-06-13T04:18:44.426Z,1.10
2018-06-13T04:19:44.436Z,1.10
2018-06-13T04:20:44.448Z,1.10
2018-06-13T04:21:44.458Z,1.10
2018-06-13T04:22:44.472Z,1.10
2018-06-13T04:23:44.484Z,1.20
2018-06-13T04:24:44.494Z,1.10
2018-06-13T04:25:44.507Z,1.10
2018-06-13T04:26:44.519Z,1.10
2018-06-13T04:27:44.532Z,1.30
2018-06-13T04:28:44.542Z,1.30
2018-06-13T04:29:44.554Z,1.10
2018-06-13T04:30:44.566Z,1.10
2018-06-13T04:31:44.582Z,1.10
2018-06-13T04:32:44.690Z,1.10
2018-06-13T04:33:44.602Z,1.10
2018-06-13T04:34:44.613Z,2.90
2018-06-13T04:35:44.643Z,1.00
2018-06-13T04:36:44.637Z,1.10
2018-06-13T04:37:44.647Z,1.10
2018-06-13T04:38:44.662Z,1.30
2018-06-13T04:39:44.673Z,1.10
2018-06-13T04:40:44.686Z,1.20
2018-06-13T04:41:44.696Z,1.20
2018-06-13T04:42:44.708Z,2.10
2018-06-13T04:43:44.722Z,1.10
2018-06-13T04:44:44.733Z,2.40
2018-06-13T04:45:44.743Z,1.10
2018-06-13T04:46:44.755Z,1.20
2018-06-13T04:47:44.768Z,1.20
2018-06-13T04:48:44.781Z,1.10
2018-06-13T04:49:44.791Z,1.50
2018-06-13T04:50:44.805Z,1.20
2018-06-13T04:51:44.816Z,1.40
2018-06-13T04:52:44.828Z,1.20
2018-06-13T04:53:44.843Z,1.10
2018-06-13T04:54:44.853Z,1.20
2018-06-13T04:55:44.866Z,1.60
2018-06-13T04:56:44.881Z,1.10
2018-06-13T04:57:44.890Z,1.20
2018-06-13T04:58:44.911Z,1.30
2018-06-13T04:59:44.916Z,3.20
2018-06-13T05:00:44.933Z,1.00
2018-06-13T05:01:44.939Z,1.00
2018-06-13T05:02:44.950Z,1.10
2018-06-13T05:03:44.961Z,1.10
2018-06-13T05:04:44.976Z,1.10
2018-06-13T05:05:44.986Z,1.10
2018-06-13T05:06:44.998Z,1.10
2018-06-13T05:07:45.014Z,1.00
2018-06-13T05:08:45.023Z,1.10
2018-06-13T05:09:45.040Z,1.20
2018-06-13T05:10:45.052Z,1.00
2018-06-13T05:11:45.062Z,1.10
2018-06-13T05:12:45.077Z,1.30
2018-06-13T05:13:45.085Z,1.20
2018-06-13T05:14:45.153Z,1.50
2018-06-13T05:15:45.109Z,1.40
2018-06-13T05:16:45.121Z,1.20
2018-06-13T05:17:45.139Z,1.10
2018-06-13T05:18:45.147Z,1.20
2018-06-13T05:19:45.160Z,1.20
2018-06-13T05:20:45.169Z,1.30
2018-06-13T05:21:45.181Z,2.10
2018-06-13T05:22:45.193Z,1.60
2018-06-13T05:23:45.206Z,1.10
2018-06-13T05:24:45.218Z,1.10
2018-06-13T05:25:45.229Z,1.10
2018-06-13T05:26:45.242Z,1.20
2018-06-13T05:27:45.254Z,1.20
2018-06-13T05:28:45.322Z,1.20
2018-06-13T05:29:45.279Z,1.20
2018-06-13T05:30:45.292Z,1.10
2018-06-13T05:31:45.301Z,1.10
2018-06-13T05:32:45.315Z,1.20
2018-06-13T05:33:45.330Z,1.10
2018-06-13T05:34:45.340Z,1.10
2018-06-13T05:35:45.352Z,1.30
2018-06-13T05:36:45.364Z,1.10
2018-06-13T05:37:45.377Z,1.50
2018-06-13T05:38:45.390Z,1.10
2018-06-13T05:39:45.403Z,1.20
2018-06-13T05:40:45.412Z,1.50
2018-06-13T05:41:45.428Z,1.20
2018-06-13T05:42:45.439Z,68.40
2018-06-13T05:43:45.466Z,299.90
2018-06-13T05:44:45.461Z,283.40
2018-06-13T05:45:45.476Z,146.50
2018-06-13T05:46:45.486Z,6.00
2018-06-13T05:47:45.499Z,4.20
2018-06-13T05:48:45.514Z,1.10
2018-06-13T05:49:45.523Z,1.30
2018-06-13T05:50:45.537Z,1.10
2018-06-13T05:51:45.549Z,1.10
2018-06-13T05:52:45.561Z,1.30
2018-06-13T05:53:45.573Z,2.10
2018-06-13T05:54:45.585Z,1.10
2018-06-13T05:55:45.608Z,1.10
2018-06-13T05:56:45.609Z,1.10
2018-06-13T05:57:45.625Z,1.20
2018-06-13T05:58:45.633Z,1.00
2018-06-13T05:59:45.647Z,1.10
2018-06-13T06:00:45.658Z,1.10
2018-06-13T06:01:45.672Z,1.00
2018-06-13T06:02:45.684Z,1.30
2018-06-13T06:03:45.695Z,1.10
2018-06-13T06:04:45.706Z,1.40
2018-06-13T06:05:45.718Z,1.10
2018-06-13T06:06:45.732Z,1.10
2018-06-13T06:07:45.743Z,1.20
2018-06-13T06:08:45.755Z,1.10
2018-06-13T06:09:45.768Z,1.10
2018-06-13T06:10:45.781Z,1.00
2018-06-13T06:11:45.793Z,1.10
2018-06-13T06:12:45.804Z,1.20
2018-06-13T06:13:45.816Z,1.20
2018-06-13T06:14:45.835Z,1.50
2018-06-13T06:15:45.840Z,2.70
2018-06-13T06:16:45.851Z,1.10
2018-06-13T06:17:45.867Z,1.00
2018-06-13T06:18:45.878Z,1.00
2018-06-13T06:19:45.889Z,1.00
2018-06-13T06:20:45.909Z,1.00
2018-06-13T06:21:45.913Z,1.10
2018-06-13T06:22:45.926Z,1.00
2018-06-13T06:23:45.942Z,2.10
2018-06-13T06:24:45.949Z,1.10
2018-06-13T06:25:45.963Z,1.40
2018-06-13T06:26:45.977Z,3.90
2018-06-13T06:27:45.988Z,2.20
2018-06-13T06:28:46.000Z,1.80
2018-06-13T06:29:46.013Z,1.40
2018-06-13T06:30:46.024Z,1.40
2018-06-13T06:31:46.036Z,1.30
2018-06-13T06:32:46.054Z,1.10
2018-06-13T06:33:46.061Z,1.10
2018-06-13T06:34:46.078Z,1.10
2018-06-13T06:35:46.085Z,1.20
2018-06-13T06:36:46.097Z,1.10
2018-06-13T06:37:46.110Z,1.10
2018-06-13T06:38:46.126Z,2.50
2018-06-13T06:39:46.134Z,3.90
2018-06-13T06:40:46.145Z,1.10
2018-06-13T06:41:46.156Z,1.80
2018-06-13T06:42:46.171Z,1.10
2018-06-13T06:43:46.186Z,2.00
2018-06-13T06:44:46.195Z,1.30
2018-06-13T06:45:46.208Z,6.00
2018-06-13T06:46:46.219Z,1.20
2018-06-13T06:47:46.235Z,1.30
2018-06-13T06:48:46.248Z,1.70
2018-06-13T06:49:46.259Z,1.20
2018-06-13T06:50:46.269Z,1.60
2018-06-13T06:51:46.281Z,1.60
2018-06-13T06:52:46.293Z,1.20
2018-06-13T06:53:46.306Z,1.10
2018-06-13T06:54:46.318Z,1.50
2018-06-13T06:55:46.331Z,1.20
2018-06-13T06:56:46.341Z,1.20
2018-06-13T06:57:46.356Z,2.00
2018-06-13T06:58:46.364Z,1.10
2018-06-13T06:59:46.380Z,1.40
2018-06-13T07:00:46.390Z,3.00
2018-06-13T07:01:46.402Z,11.00
2018-06-13T07:02:46.464Z,2.40
2018-06-13T07:03:46.429Z,1.30
2018-06-13T07:04:46.439Z,1.10
2018-06-13T07:05:46.450Z,1.20
2018-06-13T07:06:46.467Z,1.10
2018-06-13T07:07:46.479Z,1.10
2018-06-13T07:08:46.490Z,1.20
2018-06-13T07:09:46.500Z,1.10
2018-06-13T07:10:46.518Z,1.10
2018-06-13T07:11:46.527Z,1.30
2018-06-13T07:12:46.539Z,1.00
2018-06-13T07:13:46.552Z,1.10
2018-06-13T07:14:46.566Z,2.10
2018-06-13T07:15:46.584Z,1.30
2018-06-13T07:16:46.588Z,1.20
2018-06-13T07:17:46.600Z,1.10
2018-06-13T07:18:46.613Z,1.10
2018-06-13T07:19:46.624Z,1.30
2018-06-13T07:20:46.638Z,1.80
2018-06-13T07:21:46.659Z,1.30
2018-06-13T07:22:46.663Z,1.20
2018-06-13T07:23:46.680Z,13.00
2018-06-13T07:24:46.693Z,17.20
2018-06-13T07:25:46.701Z,4.80
2018-06-13T07:26:46.715Z,3.20
2018-06-13T07:27:46.724Z,1.20
2018-06-13T07:28:46.738Z,1.80
2018-06-13T07:29:46.753Z,112.80
2018-06-13T07:30:46.762Z,64.20
2018-06-13T07:31:46.780Z,19.70
2018-06-13T07:32:46.789Z,1.30
2018-06-13T07:33:46.813Z,20.50
2018-06-13T07:34:46.815Z,2.70
2018-06-13T07:35:46.831Z,1.20
2018-06-13T07:36:46.840Z,1.30
2018-06-13T07:37:46.855Z,2.60
2018-06-13T07:38:46.868Z,1.30
2018-06-13T07:39:46.884Z,1.20
2018-06-13T07:40:46.893Z,1.20
2018-06-13T07:41:46.908Z,1.20
2018-06-13T07:42:46.919Z,1.10
2018-06-13T07:43:46.930Z,1.20
2018-06-13T07:44:46.942Z,1.20
2018-06-13T07:45:46.955Z,1.20
2018-06-13T07:46:46.972Z,1.40
2018-06-13T07:47:46.985Z,1.50
2018-06-13T07:48:46.996Z,14.90
2018-06-13T07:49:47.075Z,199.60
2018-06-13T07:50:47.021Z,171.60
2018-06-13T07:51:47.036Z,47.40
2018-06-13T07:52:47.048Z,1.50
2018-06-13T07:53:47.063Z,4.00
2018-06-13T07:54:47.074Z,37.30
2018-06-13T07:55:47.088Z,125.70
2018-06-13T07:56:47.103Z,253.90
2018-06-13T07:57:47.115Z,62.80
2018-06-13T07:58:47.127Z,1.30
2018-06-13T07:59:47.140Z,6.80
2018-06-13T08:00:47.153Z,7.50
2018-06-13T08:01:47.170Z,2.20
2018-06-13T08:02:47.181Z,2.10
2018-06-13T08:03:47.193Z,4.20
2018-06-13T08:04:47.206Z,1.60
2018-06-13T08:05:47.219Z,1.40
2018-06-13T08:06:47.232Z,3.90
2018-06-13T08:07:47.248Z,1.60
2018-06-13T08:08:47.284Z,1.70
2018-06-13T08:09:47.275Z,1.90
2018-06-13T08:10:47.286Z,33.40
2018-06-13T08:11:47.300Z,175.00
2018-06-13T08:12:47.312Z,4.80
2018-06-13T08:13:47.325Z,2.30
2018-06-13T08:14:47.340Z,1.50
2018-06-13T08:15:47.354Z,1.40
2018-06-13T08:16:47.424Z,1.40
2018-06-13T08:17:47.381Z,1.20
2018-06-13T08:18:47.395Z,1.60
2018-06-13T08:19:47.405Z,1.40
2018-06-13T08:20:47.422Z,2.30
2018-06-13T08:21:47.433Z,1.10
2018-06-13T08:22:47.447Z,2.10
2018-06-13T08:23:47.462Z,1.40
2018-06-13T08:24:47.474Z,1.20
2018-06-13T08:25:47.488Z,1.20
2018-06-13T08:26:47.503Z,1.10
2018-06-13T08:27:47.517Z,1.20
2018-06-13T08:28:47.529Z,1.10
2018-06-13T08:29:47.543Z,1.30
2018-06-13T08:30:47.559Z,1.40
2018-06-13T08:31:47.571Z,1.40
2018-06-13T08:32:47.583Z,1.50
2018-06-13T08:33:47.661Z,2.10
2018-06-13T08:34:47.612Z,1.10
2018-06-13T08:35:47.626Z,1.20
2018-06-13T08:36:47.639Z,1.50
2018-06-13T08:37:47.652Z,1.70
2018-06-13T08:38:47.665Z,1.20
2018-06-13T08:39:47.700Z,1.40
2018-06-13T08:40:47.700Z,1.20
2018-06-13T08:41:47.708Z,2.20
2018-06-13T08:42:47.721Z,1.20
2018-06-13T08:43:47.735Z,2.20
2018-06-13T08:44:47.749Z,1.10
2018-06-13T08:45:47.764Z,1.30
2018-06-13T08:46:47.777Z,2.30
2018-06-13T08:47:47.791Z,1.10
2018-06-13T08:48:47.805Z,1.60
2018-06-13T08:49:47.820Z,2.20
2018-06-13T08:50:47.833Z,2.90
2018-06-13T08:51:47.847Z,1.30
2018-06-13T08:52:47.859Z,1.20
2018-06-13T08:53:47.872Z,1.10
2018-06-13T08:54:47.889Z,1.10
2018-06-13T08:55:47.965Z,1.20
2018-06-13T08:56:47.918Z,1.40
2018-06-13T08:57:47.935Z,2.10
2018-06-13T08:58:47.946Z,1.70
2018-06-13T08:59:47.959Z,1.20
2018-06-13T09:00:47.973Z,1.90
2018-06-13T09:01:47.991Z,1.10
2018-06-13T09:02:48.004Z,1.20
2018-06-13T09:03:48.024Z,1.10
2018-06-13T09:04:48.030Z,1.20
2018-06-13T09:05:48.044Z,1.40
2018-06-13T09:06:48.059Z,1.50
2018-06-13T09:07:48.073Z,5.30
2018-06-13T09:08:48.085Z,4.20
2018-06-13T09:09:48.103Z,15.50
2018-06-13T09:10:48.115Z,14.30
2018-06-13T09:11:48.131Z,48.80
2018-06-13T09:12:48.143Z,7.10
2018-06-13T09:13:48.159Z,5.40
2018-06-13T09:14:48.173Z,4.90
2018-06-13T09:15:48.187Z,1.80
2018-06-13T09:16:48.201Z,2.50
2018-06-13T09:17:48.220Z,1.70
2018-06-13T09:18:48.236Z,1.60
2018-06-13T09:19:48.245Z,5.80
2018-06-13T09:20:48.258Z,2.60
2018-06-13T09:21:48.271Z,72.00
2018-06-13T09:22:48.286Z,31.20
2018-06-13T09:23:48.303Z,50.90
2018-06-13T09:24:48.316Z,140.60
2018-06-13T09:25:48.336Z,1.50
2018-06-13T09:26:48.345Z,1.40
2018-06-13T09:27:48.363Z,1.30
2018-06-13T09:28:48.373Z,1.10
2018-06-13T09:29:48.387Z,1.10
2018-06-13T09:30:48.404Z,1.10
2018-06-13T09:31:48.417Z,2.30
2018-06-13T09:32:48.431Z,1.20
2018-06-13T09:33:48.444Z,1.20
2018-06-13T09:34:48.460Z,1.40
2018-06-13T09:35:48.475Z,1.50
2018-06-13T09:36:48.491Z,1.20
2018-06-13T09:37:48.502Z,2.30
2018-06-13T09:38:48.517Z,1.20
2018-06-13T09:39:48.542Z,1.20
2018-06-13T09:40:48.546Z,1.10
2018-06-13T09:41:48.562Z,1.70
2018-06-13T09:42:48.576Z,1.20
2018-06-13T09:43:48.592Z,1.40
2018-06-13T09:44:48.604Z,5.20
2018-06-13T09:45:48.619Z,1.50
2018-06-13T09:46:49.054Z,1.70
2018-06-13T09:47:48.652Z,1.50
2018-06-13T09:48:48.663Z,1.30
2018-06-13T09:49:48.678Z,1.20
2018-06-13T09:50:48.694Z,1.20
2018-06-13T09:51:48.708Z,1.20
2018-06-13T09:52:48.724Z,1.40
2018-06-13T09:53:48.739Z,1.30
2018-06-13T09:54:48.808Z,1.20
2018-06-13T09:55:48.770Z,1.30
2018-06-13T09:56:48.808Z,1.10
2018-06-13T09:57:48.799Z,1.20
2018-06-13T09:58:48.813Z,1.30
2018-06-13T09:59:48.832Z,1.20
2018-06-13T10:00:48.848Z,2.20
2018-06-13T10:01:48.862Z,2.40
2018-06-13T10:02:48.877Z,1.90
2018-06-13T10:03:48.890Z,1.50
2018-06-13T10:04:48.907Z,1.20
2018-06-13T10:05:48.919Z,1.30
2018-06-13T10:06:48.936Z,1.20
2018-06-13T10:07:48.950Z,1.50
2018-06-13T10:08:48.965Z,2.70
2018-06-13T10:09:48.981Z,1.60
2018-06-13T10:10:48.998Z,1.40
2018-06-13T10:11:49.013Z,1.20
2018-06-13T10:12:49.026Z,1.20
2018-06-13T10:13:49.040Z,1.20
2018-06-13T10:14:49.089Z,1.20
2018-06-13T10:15:49.070Z,1.10
2018-06-13T10:16:49.086Z,1.70
2018-06-13T10:17:49.102Z,1.50
2018-06-13T10:18:49.118Z,1.40
2018-06-13T10:19:49.130Z,1.50
2018-06-13T10:20:49.145Z,1.10
2018-06-13T10:21:49.159Z,1.10
2018-06-13T10:22:49.175Z,1.20
2018-06-13T10:23:49.190Z,1.50
2018-06-13T10:24:49.203Z,1.30
2018-06-13T10:25:49.216Z,1.30
2018-06-13T10:26:49.233Z,1.40
2018-06-13T10:27:49.249Z,1.50
2018-06-13T10:28:49.265Z,1.40
2018-06-13T10:29:49.276Z,1.20
2018-06-13T10:30:49.290Z,1.20
2018-06-13T10:31:49.306Z,2.20
2018-06-13T10:32:49.320Z,1.20
2018-06-13T10:33:49.333Z,1.20
2018-06-13T10:34:49.351Z,1.90
2018-06-13T10:35:49.363Z,1.10
2018-06-13T10:36:49.379Z,2.00
2018-06-13T10:37:49.400Z,1.20
2018-06-13T10:38:49.407Z,1.20
2018-06-13T10:39:49.422Z,1.20
2018-06-13T10:40:49.437Z,1.10
2018-06-13T10:41:49.451Z,1.60
2018-06-13T10:42:49.468Z,1.10
2018-06-13T10:43:49.481Z,1.10
2018-06-13T10:44:49.494Z,1.10
2018-06-13T10:45:49.517Z,1.90
2018-06-13T10:46:49.525Z,1.50
2018-06-13T10:47:49.538Z,1.60
2018-06-13T10:48:49.553Z,1.10
2018-06-13T10:49:49.570Z,1.10
2018-06-13T10:50:49.585Z,1.10
2018-06-13T10:51:49.600Z,2.80
2018-06-13T10:52:49.613Z,2.20
2018-06-13T10:53:49.639Z,1.90
2018-06-13T10:54:49.646Z,1.70
2018-06-13T10:55:49.664Z,1.10
2018-06-13T10:56:49.673Z,1.10
2018-06-13T10:57:49.690Z,1.90
2018-06-13T10:58:49.704Z,1.20
2018-06-13T10:59:49.720Z,1.90
2018-06-13T11:00:49.735Z,1.30
2018-06-13T11:01:49.752Z,1.20
2018-06-13T11:02:49.764Z,1.20
2018-06-13T11:03:49.780Z,1.20
2018-06-13T11:04:49.839Z,1.10
2018-06-13T11:05:49.810Z,1.20
2018-06-13T11:06:49.827Z,1.90
2018-06-13T11:07:49.841Z,1.90
2018-06-13T11:08:49.858Z,2.00
2018-06-13T11:09:49.872Z,1.30
2018-06-13T11:10:49.888Z,3.50
2018-06-13T11:11:49.903Z,1.30
2018-06-13T11:12:49.922Z,1.90
2018-06-13T11:13:49.932Z,1.30
2018-06-13T11:14:49.948Z,1.20
2018-06-13T11:15:49.963Z,2.10
2018-06-13T11:16:49.979Z,1.80
2018-06-13T11:17:49.994Z,1.40
2018-06-13T11:18:50.011Z,1.40
2018-06-13T11:19:50.024Z,1.60
2018-06-13T11:20:50.039Z,1.60
2018-06-13T11:21:50.056Z,2.40
2018-06-13T11:22:50.077Z,1.30
2018-06-13T11:23:50.089Z,1.40
2018-06-13T11:24:50.103Z,1.30
2018-06-13T11:25:50.118Z,1.80
2018-06-13T11:26:50.136Z,1.40
2018-06-13T11:27:50.147Z,1.30
2018-06-13T11:28:50.165Z,1.40
2018-06-13T11:29:50.180Z,1.50
2018-06-13T11:30:50.197Z,1.20
2018-06-13T11:31:50.215Z,2.00
2018-06-13T11:32:50.226Z,2.10
2018-06-13T11:33:50.245Z,1.70
2018-06-13T11:34:50.258Z,1.40
2018-06-13T11:35:50.273Z,1.70
2018-06-13T11:36:50.288Z,1.40
2018-06-13T11:37:50.305Z,2.20
2018-06-13T11:38:50.323Z,3.80
2018-06-13T11:39:50.339Z,1.60
2018-06-13T11:40:50.352Z,1.90
2018-06-13T11:41:50.370Z,1.30
2018-06-13T11:42:50.387Z,1.20
2018-06-13T11:43:50.399Z,1.30
2018-06-13T11:44:50.416Z,1.60
2018-06-13T11:45:50.432Z,1.40
2018-06-13T11:46:50.451Z,1.60
2018-06-13T11:47:50.465Z,1.80
2018-06-13T11:48:50.487Z,1.80
2018-06-13T11:49:50.498Z,2.20
2018-06-13T11:50:50.522Z,1.40
2018-06-13T11:51:50.531Z,1.40
2018-06-13T11:52:50.553Z,1.30
2018-06-13T11:53:50.564Z,1.40
2018-06-13T11:54:50.585Z,1.20
2018-06-13T11:55:50.597Z,2.10
2018-06-13T11:56:50.614Z,1.30
2018-06-13T11:57:50.628Z,1.60
2018-06-13T11:58:50.645Z,1.70
2018-06-13T11:59:50.663Z,2.10
2018-06-13T12:00:50.684Z,1.50
2018-06-13T12:01:50.755Z,1.30
2018-06-13T12:02:50.711Z,1.40
2018-06-13T12:03:50.729Z,2.10
2018-06-13T12:04:50.744Z,1.70
2018-06-13T12:05:50.761Z,1.90
2018-06-13T12:06:50.778Z,2.60
2018-06-13T12:07:50.795Z,1.40
2018-06-13T12:08:50.811Z,2.10
2018-06-13T12:09:50.865Z,1.40
2018-06-13T12:10:50.896Z,1.70
2018-06-13T12:11:50.860Z,1.90
2018-06-13T12:12:50.877Z,1.90
2018-06-13T12:13:50.893Z,2.50
2018-06-13T12:14:50.915Z,1.40
2018-06-13T12:15:50.929Z,1.70
2018-06-13T12:16:50.946Z,1.40
2018-06-13T12:17:50.961Z,1.80
2018-06-13T12:18:50.982Z,1.60
2018-06-13T12:19:50.992Z,2.50
2018-06-13T12:20:51.010Z,2.20
2018-06-13T12:21:51.026Z,2.70
2018-06-13T12:22:51.043Z,1.70
2018-06-13T12:23:51.059Z,2.40
2018-06-13T12:24:51.078Z,2.60
2018-06-13T12:25:51.094Z,1.70
2018-06-13T12:26:51.108Z,3.90
2018-06-13T12:27:51.124Z,2.40
2018-06-13T12:28:51.142Z,2.30
2018-06-13T12:29:51.159Z,2.00
2018-06-13T12:30:51.176Z,1.70
2018-06-13T12:31:51.192Z,1.50
2018-06-13T12:32:51.209Z,1.50
2018-06-13T12:33:51.226Z,2.60
2018-06-13T12:34:51.242Z,1.50
2018-06-13T12:35:51.258Z,1.60
2018-06-13T12:36:51.279Z,2.10
2018-06-13T12:37:51.291Z,2.00
2018-06-13T12:38:51.311Z,2.60
2018-06-13T12:39:51.323Z,2.20
2018-06-13T12:40:51.340Z,2.90
2018-06-13T12:41:51.357Z,1.40
2018-06-13T12:42:51.372Z,2.60
2018-06-13T12:43:51.389Z,1.70
2018-06-13T12:44:51.405Z,1.80
2018-06-13T12:45:51.419Z,2.70
2018-06-13T12:46:51.435Z,2.50
2018-06-13T12:47:51.454Z,2.20
2018-06-13T12:48:51.471Z,2.60
2018-06-13T12:49:51.485Z,1.50
2018-06-13T12:50:51.515Z,3.30
2018-06-13T12:51:51.518Z,1.40
2018-06-13T12:52:51.534Z,1.60
2018-06-13T12:53:51.550Z,1.60
2018-06-13T12:54:51.565Z,1.50
2018-06-13T12:55:51.582Z,10.60
2018-06-13T12:56:51.596Z,1.40
2018-06-13T12:57:51.611Z,1.90
2018-06-13T12:58:51.674Z,1.80
2018-06-13T12:59:51.642Z,2.00
2018-06-13T13:00:51.658Z,1.90
2018-06-13T13:01:51.675Z,2.40
2018-06-13T13:02:51.690Z,1.40
2018-06-13T13:03:51.707Z,5.10
2018-06-13T13:04:51.720Z,1.50
2018-06-13T13:05:51.737Z,2.00
2018-06-13T13:06:51.751Z,2.40
2018-06-13T13:07:51.768Z,4.30
2018-06-13T13:08:51.785Z,2.60
2018-06-13T13:09:51.801Z,1.80
2018-06-13T13:10:51.813Z,1.80
2018-06-13T13:11:51.830Z,1.50